Time;durP1;ratioP1;P1;durP2;ratioP2;P2;SDS_P1;SDS_P2;PMS_P1;PMS_P2;Temp;Humidity;BMP_temperature;BMP_pressure;BME280_temperature;BME280_humidity;BME280_pressure;Samples;Min_cycle;Max_cycle;Signal;HPM_P1;HPM_P2
2021/12/12 00:01:21;;;;;;;200.75;73.38;;;3.60;99.90;;;;;;5051332;28;20057;-73
2021/12/12 00:03:53;;;;;;;224.23;77.38;;;3.30;99.90;;;;;;5051458;28;20049;-73
2021/12/12 00:06:28;;;;;;;194.73;70.47;;;3.50;99.90;;;;;;5051605;28;20049;-73
2021/12/12 00:09:00;;;;;;;186.23;70.13;;;3.30;99.90;;;;;;5051662;28;20127;-73
2021/12/12 00:11:29;;;;;;;194.77;71.40;;;3.10;99.90;;;;;;5051206;28;20045;-73
2021/12/12 00:14:12;;;;;;;196.02;70.18;;;3.30;99.90;;;;;;5052385;28;20037;-73
2021/12/12 00:16:39;;;;;;;215.27;74.03;;;3.20;99.90;;;;;;5051192;28;20069;-73
2021/12/12 00:19:06;;;;;;;177.13;71.80;;;3.30;99.90;;;;;;5050979;28;20883;-73
2021/12/12 00:21:35;;;;;;;172.68;67.53;;;3.40;99.90;;;;;;5050959;28;20068;-73
2021/12/12 00:24:03;;;;;;;174.90;70.25;;;3.20;99.90;;;;;;5052122;28;20052;-73
2021/12/12 00:26:28;;;;;;;174.38;68.65;;;3.50;99.90;;;;;;5052113;28;20045;-73
2021/12/12 00:28:54;;;;;;;169.68;68.28;;;3.70;99.90;;;;;;5051987;28;20041;-73
2021/12/12 00:31:22;;;;;;;187.02;70.80;;;3.40;99.90;;;;;;5050511;28;20076;-73
2021/12/12 00:33:51;;;;;;;147.57;66.15;;;3.50;99.90;;;;;;5051484;28;20045;-73
2021/12/12 00:36:17;;;;;;;197.98;73.72;;;3.20;99.90;;;;;;5050411;28;20041;-73
2021/12/12 00:38:50;;;;;;;164.15;66.78;;;3.40;99.90;;;;;;5051689;28;20123;-73
2021/12/12 00:41:24;;;;;;;163.63;66.35;;;3.60;99.90;;;;;;5051604;28;20052;-73
2021/12/12 00:43:51;;;;;;;147.07;62.40;;;3.50;99.90;;;;;;5050698;28;20055;-73
2021/12/12 00:46:18;;;;;;;161.30;65.72;;;3.60;99.90;;;;;;5051357;28;20060;-73
2021/12/12 00:48:47;;;;;;;153.57;63.50;;;3.00;99.90;;;;;;5050545;28;20041;-73
2021/12/12 00:51:20;;;;;;;158.77;65.80;;;3.80;99.90;;;;;;5050541;28;20064;-73
2021/12/12 00:53:46;;;;;;;166.10;66.03;;;3.50;99.90;;;;;;5050397;28;20079;-73
2021/12/12 00:56:12;;;;;;;150.95;64.05;;;3.50;99.90;;;;;;5051569;28;20056;-73
2021/12/12 00:58:39;;;;;;;146.25;61.53;;;3.70;99.90;;;;;;5067053;28;20507;-73
2021/12/12 01:01:10;;;;;;;158.65;62.70;;;3.80;99.90;;;;;;5066546;28;20078;-73
2021/12/12 01:03:42;;;;;;;150.70;61.55;;;3.50;99.90;;;;;;5049910;28;20049;-73
2021/12/12 01:06:12;;;;;;;135.10;59.53;;;3.20;99.90;;;;;;5050006;28;20049;-73
2021/12/12 01:08:39;;;;;;;165.30;63.05;;;3.60;99.90;;;;;;5050051;28;20582;-70
2021/12/12 01:11:19;;;;;;;146.43;59.53;;;3.60;99.90;;;;;;5049943;28;20049;-70
2021/12/12 01:13:48;;;;;;;139.88;58.03;;;3.80;99.90;;;;;;5049956;28;20041;-70
2021/12/12 01:16:14;;;;;;;159.70;61.83;;;;;;;;;;5051032;28;20120;-71
2021/12/12 01:18:51;;;;;;;129.25;56.38;;;3.40;99.90;;;;;;5050972;28;20053;-70
2021/12/12 01:21:20;;;;;;;136.75;58.05;;;3.50;99.90;;;;;;5049632;28;20077;-70
2021/12/12 01:23:59;;;;;;;127.30;56.03;;;3.40;99.90;;;;;;5050720;28;20049;-70
2021/12/12 01:26:29;;;;;;;129.65;55.20;;;3.70;99.90;;;;;;5051005;28;20045;-70
2021/12/12 01:28:57;;;;;;;132.45;54.97;;;3.70;99.90;;;;;;5049556;28;20037;-70
2021/12/12 01:31:29;;;;;;;121.38;54.33;;;3.80;99.90;;;;;;5049375;28;20084;-70
2021/12/12 01:34:10;;;;;;;136.57;55.92;;;3.90;99.90;;;;;;5051216;28;20041;-70
2021/12/12 01:39:27;;;;;;;116.97;53.70;;;3.90;99.90;;;;;;5049537;28;20087;-70
2021/12/12 01:41:53;;;;;;;115.55;53.33;;;;;;;;;;5050644;28;20048;-70
2021/12/12 01:44:44;;;;;;;124.10;53.90;;;3.80;99.90;;;;;;5049443;28;20087;-70
2021/12/12 01:47:17;;;;;;;113.43;51.72;;;3.70;99.90;;;;;;5050567;28;20448;-70
2021/12/12 01:49:50;;;;;;;115.05;53.20;;;3.80;99.90;;;;;;5050859;28;20099;-70
2021/12/12 01:52:20;;;;;;;118.82;51.33;;;3.30;99.90;;;;;;5049438;28;20087;-70
2021/12/12 01:54:49;;;;;;;108.72;49.97;;;3.70;99.90;;;;;;5052984;28;20384;-70
2021/12/12 01:57:26;;;;;;;119.25;53.80;;;3.60;99.90;;;;;;5057514;28;20104;-70
2021/12/12 01:59:54;;;;;;;112.13;50.47;;;4.00;99.90;;;;;;5056453;28;20118;-70
2021/12/12 02:02:24;;;;;;;110.20;50.20;;;3.70;99.90;;;;;;5057230;28;20045;-70
2021/12/12 02:04:53;;;;;;;104.20;48.75;;;3.80;99.90;;;;;;5057357;28;20051;-71
2021/12/12 02:07:24;;;;;;;106.45;47.90;;;3.90;99.90;;;;;;5057134;28;20083;-71
2021/12/12 02:09:50;;;;;;;106.00;48.22;;;3.90;99.90;;;;;;5055969;28;20045;-71
2021/12/12 02:12:20;;;;;;;109.15;49.65;;;4.40;99.90;;;;;;5057018;28;20573;-71
2021/12/12 02:14:46;;;;;;;99.93;46.85;;;3.60;99.90;;;;;;5056993;28;20651;-71
2021/12/12 02:17:24;;;;;;;93.10;45.22;;;4.50;99.90;;;;;;5055909;28;20049;-71
2021/12/12 02:36:16;;;;;;;91.70;43.00;;;3.80;99.90;;;;;;5055936;28;20059;-70
2021/12/12 02:38:47;;;;;;;101.63;43.92;;;4.30;99.90;;;;;;5057177;28;20037;-69
2021/12/12 02:41:17;;;;;;;97.40;42.85;;;4.10;99.90;;;;;;5057256;28;20049;-70
2021/12/12 02:43:52;;;;;;;98.80;43.15;;;3.80;99.90;;;;;;5056877;28;20048;-69
2021/12/12 02:46:25;;;;;;;99.43;42.65;;;4.00;99.90;;;;;;5056846;28;20485;-69
2021/12/12 02:48:53;;;;;;;95.55;41.30;;;4.40;99.90;;;;;;5057263;28;20392;-70
2021/12/12 02:51:20;;;;;;;88.60;39.72;;;3.80;99.90;;;;;;5038584;28;20045;-70
2021/12/12 02:53:54;;;;;;;85.85;40.72;;;3.90;99.90;;;;;;5055699;28;20049;-70
2021/12/12 02:56:30;;;;;;;82.25;40.33;;;4.00;99.90;;;;;;5056731;28;20029;-69
2021/12/12 02:58:56;;;;;;;82.63;41.38;;;3.90;99.90;;;;;;5039013;28;20052;-70
2021/12/12 03:01:34;;;;;;;94.60;40.03;;;4.10;99.90;;;;;;5055779;28;20041;-69
2021/12/12 03:04:00;;;;;;;89.22;39.70;;;;;;;;;;5056946;28;20040;-70
2021/12/12 03:06:30;;;;;;;84.38;39.90;;;3.90;99.90;;;;;;5054460;28;20102;-70
2021/12/12 03:09:09;;;;;;;94.50;40.70;;;3.90;99.90;;;;;;5052004;28;20048;-70
2021/12/12 03:11:35;;;;;;;78.03;38.58;;;4.10;99.90;;;;;;5053393;28;20045;-70
2021/12/12 03:14:01;;;;;;;83.75;39.63;;;4.10;99.90;;;;;;5051776;28;20064;-72
2021/12/12 03:16:28;;;;;;;93.80;39.83;;;4.10;99.90;;;;;;5052028;28;20048;-73
2021/12/12 03:18:55;;;;;;;80.72;39.97;;;4.20;99.90;;;;;;5052922;28;20512;-73
2021/12/12 03:21:30;;;;;;;91.85;40.75;;;5.10;99.90;;;;;;5052959;28;20488;-73
2021/12/12 03:24:07;;;;;;;94.10;40.85;;;4.00;99.90;;;;;;5051739;28;20502;-73
2021/12/12 03:26:34;;;;;;;81.72;38.85;;;4.00;99.90;;;;;;5053004;28;20055;-73
2021/12/12 03:29:00;;;;;;;91.03;39.78;;;4.00;99.90;;;;;;5052801;28;20078;-73
2021/12/12 03:31:30;;;;;;;97.78;41.25;;;4.20;99.90;;;;;;5068233;28;20048;-73
2021/12/12 03:33:56;;;;;;;87.72;38.70;;;;;;;;;;5052685;28;20037;-73
2021/12/12 03:36:23;;;;;;;78.15;38.03;;;3.70;99.90;;;;;;5051297;28;20045;-73
2021/12/12 03:38:53;;;;;;;78.68;38.20;;;4.00;99.90;;;;;;5053060;28;20044;-73
2021/12/12 03:41:25;;;;;;;87.50;37.33;;;4.10;99.90;;;;;;5053320;28;20096;-73
2021/12/12 03:43:53;;;;;;;75.63;37.22;;;3.90;99.90;;;;;;5052105;28;20057;-73
2021/12/12 03:46:20;;;;;;;80.22;37.53;;;2.90;99.90;;;;;;5051483;28;20144;-73
2021/12/12 03:48:46;;;;;;;90.60;38.83;;;4.70;99.90;;;;;;5068220;28;20052;-73
2021/12/12 03:51:15;;;;;;;83.88;36.53;;;4.00;99.90;;;;;;5052933;28;20049;-73
2021/12/12 03:53:41;;;;;;;80.55;36.67;;;;;;;;;;5052577;28;20045;-73
2021/12/12 03:56:09;;;;;;;89.40;37.83;;;4.20;99.90;;;;;;5052813;28;20045;-73
2021/12/12 03:58:36;;;;;;;72.20;35.47;;;;;;;;;;5052780;28;20048;-73
2021/12/12 04:01:08;;;;;;;77.50;34.60;;;4.00;99.90;;;;;;5052689;28;20041;-73
2021/12/12 04:03:34;;;;;;;79.40;35.83;;;4.20;99.90;;;;;;5052658;28;20049;-73
2021/12/12 04:06:02;;;;;;;76.30;33.92;;;4.10;99.90;;;;;;5051412;28;20127;-72
2021/12/12 04:08:35;;;;;;;73.50;34.88;;;4.00;99.90;;;;;;5051608;28;20037;-73
2021/12/12 04:11:02;;;;;;;81.43;35.05;;;4.20;99.90;;;;;;5050976;28;20049;-73
2021/12/12 04:13:28;;;;;;;78.93;33.95;;;4.80;99.90;;;;;;5050839;28;20040;-73
2021/12/12 04:15:56;;;;;;;74.03;35.20;;;3.90;99.90;;;;;;5052096;28;20115;-73
2021/12/12 04:18:24;;;;;;;70.55;33.33;;;4.20;99.90;;;;;;5050405;28;20123;-73
2021/12/12 04:20:50;;;;;;;65.80;31.63;;;;;;;;;;5050804;28;20521;-74
2021/12/12 04:23:23;;;;;;;83.20;34.53;;;4.10;99.90;;;;;;5052044;28;20057;-73
2021/12/12 04:25:49;;;;;;;70.55;33.70;;;4.60;99.90;;;;;;5067511;28;20055;-74
2021/12/12 04:28:16;;;;;;;67.80;32.00;;;4.40;99.90;;;;;;5051793;28;20063;-73
2021/12/12 04:30:42;;;;;;;73.68;32.42;;;4.10;99.90;;;;;;5051788;28;20095;-71
2021/12/12 04:33:08;;;;;;;67.80;31.63;;;;;;;;;;5050349;28;20551;-72
2021/12/12 04:35:35;;;;;;;74.05;32.85;;;4.20;99.90;;;;;;5050670;28;20049;-73
2021/12/12 04:38:04;;;;;;;66.22;32.05;;;4.20;99.90;;;;;;5050293;28;20059;-72
2021/12/12 04:40:33;;;;;;;65.63;31.70;;;4.40;99.90;;;;;;5051443;28;20087;-73
2021/12/12 04:42:59;;;;;;;64.10;31.48;;;4.40;99.90;;;;;;5051250;28;20102;-73
2021/12/12 04:45:41;;;;;;;58.58;29.58;;;4.80;99.90;;;;;;5049883;28;20051;-73
2021/12/12 04:51:23;;;;;;;64.75;31.73;;;4.30;99.90;;;;;;5050042;28;20053;-73
2021/12/12 04:54:12;;;;;;;62.35;29.35;;;4.30;99.90;;;;;;5050129;28;20670;-72
2021/12/12 04:57:05;;;;;;;58.53;29.45;;;4.60;99.90;;;;;;5049764;28;20041;-70
2021/12/12 04:59:56;;;;;;;54.00;29.58;;;4.40;99.90;;;;;;5051047;28;20041;-70
2021/12/12 05:02:43;;;;;;;60.55;30.80;;;4.50;99.90;;;;;;5051470;28;20049;-72
2021/12/12 05:05:12;;;;;;;;;;;4.50;99.90;;;;;;5067256;28;20056;-73
2021/12/12 05:07:38;;;;;;;56.50;30.55;;;;;;;;;;5051402;28;19921;-72
2021/12/12 05:10:22;;;;;;;62.53;29.58;;;4.50;99.90;;;;;;5051149;28;20102;-73
2021/12/12 05:13:10;;;;;;;61.75;30.13;;;4.50;99.90;;;;;;5051160;28;20687;-72
2021/12/12 05:15:40;;;;;;;57.72;30.08;;;4.50;99.90;;;;;;5051184;28;20146;-72
2021/12/12 05:18:28;;;;;;;53.10;28.27;;;4.60;99.90;;;;;;5050968;28;20535;-72
2021/12/12 05:21:10;;;;;;;49.67;27.15;;;4.60;99.90;;;;;;5049728;28;20057;-73
2021/12/12 05:23:38;;;;;;;55.35;27.35;;;4.50;99.90;;;;;;5051065;28;20455;-72
2021/12/12 05:26:13;;;;;;;50.75;27.83;;;4.80;99.90;;;;;;5051061;28;20041;-72
2021/12/12 05:28:54;;;;;;;45.03;25.10;;;4.50;99.90;;;;;;5050889;28;20067;-73
2021/12/12 05:31:24;;;;;;;48.67;25.85;;;4.70;99.90;;;;;;5049610;28;20061;-72
2021/12/12 05:33:52;;;;;;;45.40;24.70;;;4.90;99.90;;;;;;5050674;28;20040;-72
2021/12/12 05:36:20;;;;;;;40.90;24.58;;;4.80;99.90;;;;;;5050877;28;20059;-72
2021/12/12 05:38:47;;;;;;;40.08;24.38;;;4.80;99.90;;;;;;5066051;28;20045;-71
2021/12/12 05:41:17;;;;;;;40.72;24.00;;;4.80;99.90;;;;;;5050547;28;20049;-72
2021/12/12 05:43:45;;;;;;;33.30;21.48;;;4.40;99.90;;;;;;5050740;28;20076;-72
2021/12/12 05:46:15;;;;;;;38.78;22.67;;;4.70;99.90;;;;;;5049505;28;20045;-73
2021/12/12 05:48:43;;;;;;;34.28;21.58;;;4.70;99.90;;;;;;5050365;28;20093;-72
2021/12/12 05:51:10;;;;;;;33.85;21.10;;;4.90;99.90;;;;;;5049176;28;20045;-72
2021/12/12 05:53:36;;;;;;;30.70;21.02;;;5.00;99.90;;;;;;5050862;28;20075;-72
2021/12/12 05:56:03;;;;;;;28.88;19.23;;;5.00;99.90;;;;;;5049028;28;20103;-72
2021/12/12 05:58:48;;;;;;;27.35;18.38;;;4.90;99.90;;;;;;5065748;28;20047;-72
2021/12/12 06:01:14;;;;;;;24.27;17.13;;;;;;;;;;5049493;28;20596;-73
2021/12/12 06:03:42;;;;;;;29.60;17.05;;;4.80;99.90;;;;;;5049221;28;20512;-72
2021/12/12 06:06:13;;;;;;;27.92;18.23;;;4.90;99.90;;;;;;5050328;28;20070;-73
2021/12/12 06:08:40;;;;;;;26.58;17.40;;;4.90;99.90;;;;;;5048989;28;20049;-73
2021/12/12 06:11:06;;;;;;;28.27;17.33;;;;;;;;;;5049041;28;20049;-70
2021/12/12 06:13:36;;;;;;;25.08;16.92;;;4.90;99.90;;;;;;5050040;28;20106;-72
2021/12/12 06:16:02;;;;;;;28.60;17.70;;;4.50;99.90;;;;;;5050125;28;20080;-72
2021/12/12 06:18:31;;;;;;;26.75;17.70;;;4.80;99.90;;;;;;5049046;28;20041;-72
2021/12/12 06:20:57;;;;;;;32.70;20.13;;;5.00;99.90;;;;;;5050165;28;20409;-72
2021/12/12 06:23:23;;;;;;;33.25;19.20;;;5.20;99.90;;;;;;5050480;28;20044;-72
2021/12/12 06:25:50;;;;;;;24.98;17.80;;;5.00;99.90;;;;;;5050199;28;20615;-72
2021/12/12 06:28:25;;;;;;;27.13;17.95;;;4.90;99.90;;;;;;5050088;28;20084;-72
2021/12/12 06:30:51;;;;;;;29.90;18.90;;;5.40;99.90;;;;;;5032213;28;20040;-71
2021/12/12 06:33:17;;;;;;;27.95;19.08;;;5.00;99.90;;;;;;5048664;28;20095;-72
2021/12/12 06:35:45;;;;;;;29.63;18.33;;;5.00;99.90;;;;;;5050478;28;20076;-71
2021/12/12 06:38:13;;;;;;;24.95;16.90;;;4.90;99.90;;;;;;5049019;28;20041;-71
2021/12/12 06:40:40;;;;;;;32.15;20.23;;;4.80;99.90;;;;;;5065301;28;20056;-71
2021/12/12 06:43:09;;;;;;;27.75;19.25;;;5.00;99.90;;;;;;5051369;28;20098;-71
2021/12/12 06:45:37;;;;;;;27.42;19.08;;;5.00;99.90;;;;;;5053567;28;20043;-71
2021/12/12 06:48:08;;;;;;;31.02;19.05;;;4.70;99.90;;;;;;5053299;28;20053;-71
2021/12/12 06:50:36;;;;;;;30.05;19.67;;;4.80;99.90;;;;;;5052261;28;20053;-71
2021/12/12 06:53:02;;;;;;;26.90;18.73;;;;;;;;;;5053625;28;20037;-71
2021/12/12 06:55:33;;;;;;;30.67;19.92;;;5.10;99.90;;;;;;5053783;28;20389;-71
2021/12/12 06:58:01;;;;;;;30.55;20.42;;;5.20;99.90;;;;;;5053511;28;20048;-71
2021/12/12 07:00:28;;;;;;;31.73;21.27;;;4.90;99.90;;;;;;5053494;28;20485;-71
2021/12/12 07:02:54;;;;;;;29.30;20.38;;;5.00;99.90;;;;;;5053768;28;20102;-71
2021/12/12 07:05:24;;;;;;;33.03;21.38;;;4.90;99.90;;;;;;5053559;28;20073;-71
2021/12/12 07:07:52;;;;;;;41.03;23.98;;;5.00;99.90;;;;;;5053418;28;20664;-71
2021/12/12 07:10:21;;;;;;;37.88;23.75;;;5.00;99.90;;;;;;5052255;28;20073;-71
2021/12/12 07:12:54;;;;;;;38.40;23.90;;;5.10;99.90;;;;;;5053494;28;20041;-71
2021/12/12 07:15:22;;;;;;;44.10;23.60;;;5.10;99.90;;;;;;5051966;28;20033;-71
2021/12/12 07:17:48;;;;;;;42.92;24.60;;;5.10;99.90;;;;;;5035792;28;20102;-70
2021/12/12 07:20:14;;;;;;;37.95;24.95;;;4.80;99.90;;;;;;5053592;28;20419;-70
2021/12/12 07:22:41;;;;;;;40.15;23.98;;;5.10;99.90;;;;;;5053441;28;20076;-70
2021/12/12 07:25:09;;;;;;;43.33;24.98;;;5.10;99.90;;;;;;5053296;28;20045;-70
2021/12/12 07:27:34;;;;;;;37.25;24.50;;;4.90;99.90;;;;;;5051903;28;20041;-70
2021/12/12 07:30:01;;;;;;;40.90;24.77;;;5.10;99.90;;;;;;5053452;28;20040;-69
2021/12/12 07:32:28;;;;;;;47.33;26.55;;;5.20;99.90;;;;;;5053244;28;20067;-69
2021/12/12 07:34:54;;;;;;;38.97;23.95;;;3.80;99.90;;;;;;5053292;28;20056;-69
2021/12/12 07:37:20;;;;;;;42.20;25.48;;;5.50;99.90;;;;;;5051664;28;20123;-70
2021/12/12 07:39:46;;;;;;;40.78;25.20;;;;;;;;;;5052936;28;20080;-70
2021/12/12 07:42:15;;;;;;;39.10;24.33;;;5.10;99.90;;;;;;5051584;28;20119;-70
2021/12/12 07:44:43;;;;;;;38.63;23.50;;;5.30;99.90;;;;;;5051393;28;20137;-70
2021/12/12 07:47:13;;;;;;;36.63;22.75;;;6.00;99.90;;;;;;5042873;28;20048;-70
2021/12/12 07:49:43;;;;;;;41.75;24.88;;;4.70;99.90;;;;;;5072424;28;20094;-69
2021/12/12 07:52:23;;;;;;;41.40;24.17;;;5.50;99.90;;;;;;5072049;28;20762;-70
2021/12/12 07:54:52;;;;;;;41.00;25.33;;;5.30;99.90;;;;;;5071278;28;20500;-70
2021/12/12 07:57:19;;;;;;;41.65;24.02;;;5.30;99.90;;;;;;5054540;28;20040;-71
2021/12/12 07:59:46;;;;;;;38.05;23.27;;;5.40;99.90;;;;;;5072676;28;20119;-71
2021/12/12 08:02:15;;;;;;;40.60;24.48;;;5.60;99.90;;;;;;5072782;28;20050;-70
2021/12/12 08:04:42;;;;;;;37.42;23.67;;;5.40;99.90;;;;;;5072777;28;20044;-71
2021/12/12 08:07:12;;;;;;;40.78;25.33;;;5.40;99.90;;;;;;5072439;28;20044;-70
2021/12/12 08:09:41;;;;;;;40.95;25.27;;;5.50;99.90;;;;;;5072317;28;20048;-70
2021/12/12 08:12:13;;;;;;;41.97;25.85;;;5.50;99.90;;;;;;5070667;28;20119;-71
2021/12/12 08:14:40;;;;;;;46.75;26.45;;;5.10;99.90;;;;;;5072031;28;20037;-70
2021/12/12 08:17:06;;;;;;;54.17;28.75;;;;;;;;;;5070728;28;20048;-70
2021/12/12 08:19:33;;;;;;;47.95;26.98;;;5.40;99.90;;;;;;5051586;28;20527;-68
2021/12/12 08:22:06;;;;;;;59.20;30.83;;;4.80;99.90;;;;;;5069841;28;20110;-69
2021/12/12 08:24:33;;;;;;;62.25;29.90;;;5.40;99.90;;;;;;5069526;28;20053;-69
2021/12/12 08:26:59;;;;;;;56.45;31.02;;;5.40;99.90;;;;;;5070641;28;20041;-69
2021/12/12 08:29:26;;;;;;;65.45;32.20;;;4.80;99.90;;;;;;5069520;28;20495;-69
2021/12/12 08:31:53;;;;;;;61.55;31.80;;;6.10;99.90;;;;;;5069022;28;20062;-69
2021/12/12 08:34:19;;;;;;;64.95;33.25;;;5.50;99.90;;;;;;5070466;28;20488;-70
2021/12/12 08:36:50;;;;;;;52.22;30.25;;;5.50;99.90;;;;;;5070910;28;20046;-70
2021/12/12 08:39:17;;;;;;;58.53;32.50;;;5.40;99.90;;;;;;5069239;28;20052;-70
2021/12/12 08:41:47;;;;;;;64.32;33.55;;;5.60;99.90;;;;;;5069474;28;20053;-70
2021/12/12 08:44:13;;;;;;;60.50;32.35;;;5.60;99.90;;;;;;5069372;28;20056;-71
2021/12/12 08:46:42;;;;;;;55.15;32.10;;;5.60;99.90;;;;;;5066189;28;20060;-70
2021/12/12 08:49:12;;;;;;;67.43;34.58;;;5.60;99.90;;;;;;5049086;28;20440;-69
2021/12/12 08:51:46;;;;;;;61.25;33.67;;;5.70;99.90;;;;;;5050548;28;20057;-69
2021/12/12 08:54:15;;;;;;;69.22;34.03;;;5.80;99.90;;;;;;5048845;28;20493;-70
2021/12/12 08:56:49;;;;;;;64.20;33.75;;;5.80;99.90;;;;;;5050412;28;20045;-70
2021/12/12 08:59:24;;;;;;;59.72;31.65;;;5.90;99.90;;;;;;5048833;28;20485;-70
2021/12/12 09:01:52;;;;;;;52.13;30.77;;;5.90;99.90;;;;;;5049272;28;20049;-69
2021/12/12 09:04:18;;;;;;;51.03;29.70;;;6.30;99.90;;;;;;5061925;28;20053;-70
2021/12/12 09:07:03;;;;;;;54.42;30.13;;;5.90;99.90;;;;;;5070701;28;20128;-70
2021/12/12 09:09:37;;;;;;;66.60;32.75;;;5.90;99.90;;;;;;5069328;28;20088;-69
2021/12/12 09:12:12;;;;;;;57.63;30.70;;;5.50;99.90;;;;;;5068738;28;20047;-70
2021/12/12 09:15:22;;;;;;;61.60;32.33;;;5.80;99.90;;;;;;5070355;28;20048;-69
2021/12/12 09:17:55;;;;;;;60.05;31.00;;;5.80;99.90;;;;;;5027394;28;20107;-69
2021/12/12 09:20:31;;;;;;;52.97;29.88;;;5.90;99.90;;;;;;5010874;28;20477;-69
2021/12/12 09:23:20;;;;;;;53.92;30.42;;;5.70;99.90;;;;;;4994353;28;20075;-69
2021/12/12 09:25:52;;;;;;;55.72;29.63;;;6.20;99.90;;;;;;5010968;28;20068;-69
2021/12/12 09:28:29;;;;;;;55.13;30.75;;;5.90;99.90;;;;;;5011465;28;20049;-69
2021/12/12 09:30:59;;;;;;;69.78;35.47;;;6.10;99.90;;;;;;5010592;28;20052;-69
2021/12/12 09:33:32;;;;;;;66.88;31.70;;;6.30;99.90;;;;;;4994425;28;20041;-70
2021/12/12 09:36:09;;;;;;;70.03;34.03;;;6.10;99.90;;;;;;5010528;28;20490;-71
2021/12/12 09:39:08;;;;;;;59.72;30.30;;;6.00;99.90;;;;;;5011250;28;20053;-71
2021/12/12 09:41:58;;;;;;;68.82;32.88;;;6.40;99.90;;;;;;5010830;28;20065;-70
2021/12/12 09:44:42;;;;;;;69.30;31.42;;;6.30;99.90;;;;;;5011022;28;20095;-70
2021/12/12 09:47:46;;;;;;;85.53;34.28;;;6.30;99.90;;;;;;5010268;28;20050;-70
2021/12/12 09:53:57;;;;;;;79.07;33.85;;;6.30;99.90;;;;;;5068422;28;20058;-71
2021/12/12 09:56:49;;;;;;;79.18;32.42;;;6.10;99.90;;;;;;5064209;28;20141;-71
2021/12/12 09:59:49;;;;;;;70.13;31.00;;;6.30;99.90;;;;;;5055452;28;20036;-71
2021/12/12 10:02:24;;;;;;;95.90;34.97;;;6.30;99.90;;;;;;5068191;28;20132;-70
2021/12/12 10:05:27;;;;;;;71.93;32.53;;;6.50;99.90;;;;;;5050577;28;20121;-69
2021/12/12 10:07:58;;;;;;;84.15;35.35;;;6.40;99.90;;;;;;5048023;28;20049;-69
2021/12/12 10:11:00;;;;;;;90.78;39.00;;;6.80;99.90;;;;;;5032247;28;20049;-69
2021/12/12 10:13:48;;;;;;;88.20;35.53;;;6.50;99.90;;;;;;5049901;28;20049;-69
2021/12/12 10:16:28;;;;;;;90.85;35.33;;;6.50;99.90;;;;;;5066312;28;20090;-69
2021/12/12 10:19:01;;;;;;;76.25;33.35;;;6.90;99.90;;;;;;5053651;28;20059;-70
2021/12/12 10:21:58;;;;;;;78.07;33.83;;;6.90;99.90;;;;;;5052186;28;20069;-69
2021/12/12 10:24:29;;;;;;;;;;;6.60;99.90;;;;;;5052638;28;20048;-69
2021/12/12 10:27:11;;;;;;;87.75;35.03;;;6.70;99.90;;;;;;5052818;28;19920;-69
2021/12/12 10:30:08;;;;;;;104.85;37.63;;;6.70;99.90;;;;;;5052209;28;20374;-69
2021/12/12 10:33:08;;;;;;;91.03;35.25;;;6.90;99.90;;;;;;5051588;28;20069;-69
2021/12/12 10:35:41;;;;;;;82.53;33.58;;;7.20;99.90;;;;;;5068647;28;20052;-69
2021/12/12 10:38:26;;;;;;;75.32;31.95;;;7.30;99.90;;;;;;5052861;28;20424;-69
2021/12/12 10:40:56;;;;;;;71.93;31.40;;;6.90;99.90;;;;;;5053042;28;20045;-70
2021/12/12 10:43:53;;;;;;;76.75;31.65;;;7.00;99.90;;;;;;5053107;28;20346;-69
2021/12/12 10:46:23;;;;;;;70.35;31.33;;;6.60;99.90;;;;;;5052017;28;20125;-69
2021/12/12 10:48:58;;;;;;;69.80;31.42;;;7.50;99.90;;;;;;5052711;28;20405;-69
2021/12/12 10:51:29;;;;;;;65.38;29.25;;;7.20;99.90;;;;;;5052026;28;20530;-70
2021/12/12 10:54:13;;;;;;;65.20;29.90;;;7.50;99.90;;;;;;5051443;28;20087;-69
2021/12/12 10:56:50;;;;;;;61.75;28.35;;;6.90;99.90;;;;;;5053505;28;20033;-70
2021/12/12 10:59:33;;;;;;;67.63;30.40;;;7.10;99.90;;;;;;5051622;28;20408;-69
2021/12/12 11:02:09;;;;;;;73.43;30.15;;;7.20;99.90;;;;;;5051258;28;20094;-70
2021/12/12 11:04:56;;;;;;;;;;;7.30;99.90;;;;;;5070846;28;20065;-69
2021/12/12 11:07:27;;;;;;;63.88;28.52;;;7.40;99.90;;;;;;5053155;28;19928;-69
2021/12/12 11:10:09;;;;;;;66.03;28.98;;;7.40;99.90;;;;;;5051361;28;20060;-69
2021/12/12 11:12:45;;;;;;;57.85;28.05;;;7.40;99.90;;;;;;5051571;28;20048;-71
2021/12/12 11:15:42;;;;;;;60.58;27.65;;;7.50;99.90;;;;;;5052611;28;20075;-71
2021/12/12 11:18:10;;;;;;;58.97;26.73;;;7.00;99.90;;;;;;5051042;28;20504;-71
2021/12/12 11:20:39;;;;;;;57.58;26.25;;;7.80;99.90;;;;;;5052607;28;20033;-70
2021/12/12 11:23:12;;;;;;;59.35;26.65;;;7.50;99.90;;;;;;5051156;28;20147;-71
2021/12/12 11:26:04;;;;;;;57.80;26.40;;;7.40;99.90;;;;;;5067770;28;20408;-71
2021/12/12 11:28:46;;;;;;;44.60;22.67;;;7.80;99.90;;;;;;5049427;28;20061;-71
2021/12/12 11:31:26;;;;;;;39.55;21.77;;;7.60;99.90;;;;;;5033961;28;20135;-69
2021/12/12 11:33:54;;;;;;;41.88;22.65;;;7.80;99.90;;;;;;5050320;28;20052;-69
2021/12/12 11:36:27;;;;;;;49.85;23.65;;;7.90;99.90;;;;;;5067864;28;20088;-69
2021/12/12 11:38:58;;;;;;;42.67;21.67;;;7.80;99.90;;;;;;5050458;28;20067;-69
2021/12/12 11:41:52;;;;;;;46.17;22.67;;;7.70;99.90;;;;;;5050822;28;20484;-69
2021/12/12 11:44:31;;;;;;;45.75;22.10;;;8.10;99.90;;;;;;5060667;28;20056;-69
2021/12/12 11:47:08;;;;;;;41.63;21.55;;;7.70;99.90;;;;;;5070429;28;20693;-69
2021/12/12 11:50:01;;;;;;;41.75;22.05;;;7.50;99.90;;;;;;5071922;28;20048;-70
2021/12/12 11:52:52;;;;;;;38.38;21.17;;;7.40;99.90;;;;;;5042600;28;20059;-71
2021/12/12 11:55:50;;;;;;;44.10;22.73;;;8.30;99.90;;;;;;5071506;28;20417;-72
2021/12/12 11:58:37;;;;;;;42.88;21.90;;;7.70;99.90;;;;;;5069909;28;20084;-71
2021/12/12 12:01:11;;;;;;;49.40;23.88;;;8.00;99.90;;;;;;5069882;28;20106;-72
2021/12/12 12:03:49;;;;;;;43.30;21.63;;;7.90;99.90;;;;;;5070226;28;20558;-71
2021/12/12 12:06:52;;;;;;;41.67;21.45;;;7.90;99.90;;;;;;5070156;28;20060;-72
2021/12/12 12:09:37;;;;;;;52.17;24.85;;;7.50;99.90;;;;;;5070241;28;20485;-71
2021/12/12 12:12:03;;;;;;;41.47;21.00;;;;;;;;;;5069819;28;20060;-72
2021/12/12 12:14:39;;;;;;;46.25;22.25;;;8.10;99.90;;;;;;5070152;28;20421;-72
2021/12/12 12:17:47;;;;;;;65.20;28.85;;;7.70;99.90;;;;;;5069904;28;20392;-72
2021/12/12 12:20:27;;;;;;;50.47;23.10;;;7.80;99.90;;;;;;5069710;28;20135;-71
2021/12/12 12:23:32;;;;;;;53.80;24.25;;;8.00;99.90;;;;;;5069959;28;20449;-72
2021/12/12 12:29:27;;;;;;;50.88;24.30;;;7.40;99.90;;;;;;5070933;28;20118;-71
2021/12/12 12:32:31;;;;;;;60.55;26.95;;;8.50;99.90;;;;;;5069074;28;20067;-72
2021/12/12 12:35:15;;;;;;;62.85;26.17;;;8.10;99.90;;;;;;5069523;28;20048;-72
2021/12/12 12:38:12;;;;;;;54.83;26.55;;;8.00;99.90;;;;;;5068733;28;20083;-72
2021/12/12 12:41:15;;;;;;;55.55;26.80;;;7.90;99.90;;;;;;5069812;28;20481;-72
2021/12/12 12:44:18;;;;;;;71.72;30.17;;;7.90;99.90;;;;;;5069961;28;20127;-72
2021/12/12 12:47:09;;;;;;;66.68;28.15;;;8.30;99.90;;;;;;5070370;28;20159;-72
2021/12/12 12:50:12;;;;;;;67.82;29.08;;;8.20;99.90;;;;;;5069521;28;20060;-72
2021/12/12 12:53:12;;;;;;;66.35;29.10;;;8.00;99.90;;;;;;5068846;28;20075;-72
2021/12/12 12:56:05;;;;;;;70.13;28.80;;;8.20;99.90;;;;;;5069289;28;20048;-71
2021/12/12 12:59:09;;;;;;;74.45;30.35;;;7.70;99.90;;;;;;5069157;28;20040;-72
2021/12/12 13:01:49;;;;;;;88.70;32.92;;;8.10;99.90;;;;;;5069035;28;20056;-72
2021/12/12 13:04:35;;;;;;;80.93;30.92;;;8.40;99.90;;;;;;5069208;28;20074;-72
2021/12/12 13:07:30;;;;;;;80.93;29.80;;;8.30;99.90;;;;;;5070011;28;20523;-71
2021/12/12 13:10:30;;;;;;;80.93;30.40;;;7.70;99.90;;;;;;5068837;28;20127;-72
2021/12/12 13:13:28;;;;;;;93.00;31.95;;;8.50;99.90;;;;;;5035981;28;20060;-71
2021/12/12 13:16:21;;;;;;;90.93;31.02;;;8.00;99.90;;;;;;5070063;28;20098;-72
2021/12/12 13:18:46;;;;;;;88.22;33.35;;;7.90;99.90;;;;;;5052095;28;20064;-72
2021/12/12 13:21:12;;;;;;;95.93;35.95;;;7.90;99.90;;;;;;5068782;28;20048;-72
2021/12/12 13:24:00;;;;;;;93.32;34.33;;;8.10;99.90;;;;;;5068032;28;20131;-71
2021/12/12 13:27:03;;;;;;;95.10;33.85;;;8.30;99.90;;;;;;5068722;28;20087;-71
2021/12/12 13:29:55;;;;;;;102.50;34.28;;;8.30;99.90;;;;;;5070089;28;20042;-71
2021/12/12 13:32:35;;;;;;;101.78;33.45;;;8.20;99.90;;;;;;5068489;28;20119;-72
2021/12/12 13:35:12;;;;;;;90.05;32.03;;;8.40;99.90;;;;;;5049408;28;20080;-72
2021/12/12 13:38:06;;;;;;;92.13;32.35;;;8.60;99.90;;;;;;5049645;28;20041;-72
2021/12/12 13:40:45;;;;;;;105.85;35.88;;;8.30;99.90;;;;;;5048527;28;20044;-71
2021/12/12 13:43:38;;;;;;;85.85;32.80;;;8.40;99.90;;;;;;5048493;28;20084;-71
2021/12/12 13:46:22;;;;;;;93.35;33.47;;;8.50;99.90;;;;;;5048141;28;20515;-71
2021/12/12 13:48:55;;;;;;;119.82;36.50;;;8.70;99.90;;;;;;5048166;28;20408;-71